sensor_id;sensor_type;location;lat;lon;timestamp;P1;durP1;ratioP1;P2;durP2;ratioP2
58272;SDS011;44075;42.436;18.514;2022-11-18T00:01:46;8.48;;;3.05;;
58272;SDS011;44075;42.436;18.514;2022-11-18T00:04:12;11.40;;;3.72;;
58272;SDS011;44075;42.436;18.514;2022-11-18T00:06:38;9.27;;;3.30;;
58272;SDS011;44075;42.436;18.514;2022-11-18T00:09:04;9.60;;;3.53;;
58272;SDS011;44075;42.436;18.514;2022-11-18T00:11:30;9.10;;;3.25;;
58272;SDS011;44075;42.436;18.514;2022-11-18T00:14:16;8.82;;;2.97;;
58272;SDS011;44075;42.436;18.514;2022-11-18T00:16:43;10.10;;;3.25;;
58272;SDS011;44075;42.436;18.514;2022-11-18T00:19:09;7.55;;;3.15;;
58272;SDS011;44075;42.436;18.514;2022-11-18T00:21:35;8.50;;;3.10;;
58272;SDS011;44075;42.436;18.514;2022-11-18T00:24:01;8.90;;;3.05;;
58272;SDS011;44075;42.436;18.514;2022-11-18T00:26:27;9.60;;;3.55;;
58272;SDS011;44075;42.436;18.514;2022-11-18T00:28:53;9.38;;;2.97;;
58272;SDS011;44075;42.436;18.514;2022-11-18T00:31:19;8.57;;;3.45;;
58272;SDS011;44075;42.436;18.514;2022-11-18T00:33:45;10.50;;;3.53;;
58272;SDS011;44075;42.436;18.514;2022-11-18T00:36:11;9.07;;;3.38;;
58272;SDS011;44075;42.436;18.514;2022-11-18T00:38:38;10.15;;;3.55;;
58272;SDS011;44075;42.436;18.514;2022-11-18T00:41:14;10.77;;;3.65;;
58272;SDS011;44075;42.436;18.514;2022-11-18T00:43:40;8.40;;;3.30;;
58272;SDS011;44075;42.436;18.514;2022-11-18T00:46:07;8.75;;;3.72;;
58272;SDS011;44075;42.436;18.514;2022-11-18T00:48:34;9.32;;;3.55;;
58272;SDS011;44075;42.436;18.514;2022-11-18T00:51:13;11.10;;;3.50;;
58272;SDS011;44075;42.436;18.514;2022-11-18T00:53:40;9.68;;;3.25;;
58272;SDS011;44075;42.436;18.514;2022-11-18T00:56:06;8.60;;;3.40;;
58272;SDS011;44075;42.436;18.514;2022-11-18T00:58:32;10.13;;;3.45;;
58272;SDS011;44075;42.436;18.514;2022-11-18T01:01:00;7.82;;;3.42;;
58272;SDS011;44075;42.436;18.514;2022-11-18T01:03:26;8.55;;;3.22;;
58272;SDS011;44075;42.436;18.514;2022-11-18T01:05:52;8.55;;;3.65;;
58272;SDS011;44075;42.436;18.514;2022-11-18T01:08:19;11.10;;;3.28;;
58272;SDS011;44075;42.436;18.514;2022-11-18T01:10:46;10.00;;;3.65;;
58272;SDS011;44075;42.436;18.514;2022-11-18T01:13:13;8.00;;;2.72;;
58272;SDS011;44075;42.436;18.514;2022-11-18T01:15:54;9.03;;;3.37;;
58272;SDS011;44075;42.436;18.514;2022-11-18T01:18:22;7.63;;;3.75;;
58272;SDS011;44075;42.436;18.514;2022-11-18T01:20:48;7.53;;;3.08;;
58272;SDS011;44075;42.436;18.514;2022-11-18T01:23:15;8.50;;;3.63;;
58272;SDS011;44075;42.436;18.514;2022-11-18T01:25:42;9.48;;;3.35;;
58272;SDS011;44075;42.436;18.514;2022-11-18T01:28:08;9.65;;;3.35;;
58272;SDS011;44075;42.436;18.514;2022-11-18T01:30:35;10.93;;;3.67;;
58272;SDS011;44075;42.436;18.514;2022-11-18T01:33:02;8.70;;;3.45;;
58272;SDS011;44075;42.436;18.514;2022-11-18T01:35:35;8.00;;;3.90;;
58272;SDS011;44075;42.436;18.514;2022-11-18T01:38:02;9.63;;;3.28;;
58272;SDS011;44075;42.436;18.514;2022-11-18T01:40:28;9.43;;;3.50;;
58272;SDS011;44075;42.436;18.514;2022-11-18T01:42:54;8.95;;;3.15;;
58272;SDS011;44075;42.436;18.514;2022-11-18T01:45:34;7.40;;;2.95;;
58272;SDS011;44075;42.436;18.514;2022-11-18T01:48:19;9.00;;;3.63;;
58272;SDS011;44075;42.436;18.514;2022-11-18T01:50:48;7.60;;;3.22;;
58272;SDS011;44075;42.436;18.514;2022-11-18T01:53:25;7.35;;;2.97;;
58272;SDS011;44075;42.436;18.514;2022-11-18T01:58:20;9.70;;;3.38;;
58272;SDS011;44075;42.436;18.514;2022-11-18T02:00:47;8.13;;;2.97;;
58272;SDS011;44075;42.436;18.514;2022-11-18T02:03:13;9.95;;;3.28;;
58272;SDS011;44075;42.436;18.514;2022-11-18T02:05:49;7.53;;;3.17;;
58272;SDS011;44075;42.436;18.514;2022-11-18T02:08:15;9.85;;;3.30;;
58272;SDS011;44075;42.436;18.514;2022-11-18T02:10:42;7.70;;;3.28;;
58272;SDS011;44075;42.436;18.514;2022-11-18T02:13:08;9.30;;;3.47;;
58272;SDS011;44075;42.436;18.514;2022-11-18T02:20:43;7.57;;;3.20;;
58272;SDS011;44075;42.436;18.514;2022-11-18T02:33:52;7.80;;;3.15;;
58272;SDS011;44075;42.436;18.514;2022-11-18T02:36:22;9.93;;;3.63;;
58272;SDS011;44075;42.436;18.514;2022-11-18T02:38:59;8.07;;;3.30;;
58272;SDS011;44075;42.436;18.514;2022-11-18T02:41:27;9.20;;;3.28;;
58272;SDS011;44075;42.436;18.514;2022-11-18T02:43:55;8.35;;;3.10;;
58272;SDS011;44075;42.436;18.514;2022-11-18T02:46:23;8.43;;;3.03;;
58272;SDS011;44075;42.436;18.514;2022-11-18T02:48:51;8.30;;;2.97;;
58272;SDS011;44075;42.436;18.514;2022-11-18T02:51:19;11.95;;;3.33;;
58272;SDS011;44075;42.436;18.514;2022-11-18T02:53:46;8.30;;;2.92;;
58272;SDS011;44075;42.436;18.514;2022-11-18T02:56:14;8.27;;;3.10;;
58272;SDS011;44075;42.436;18.514;2022-11-18T02:58:40;8.40;;;3.35;;
58272;SDS011;44075;42.436;18.514;2022-11-18T03:01:06;8.48;;;3.20;;
58272;SDS011;44075;42.436;18.514;2022-11-18T03:03:40;9.82;;;3.00;;
58272;SDS011;44075;42.436;18.514;2022-11-18T03:06:20;7.13;;;2.97;;
58272;SDS011;44075;42.436;18.514;2022-11-18T03:11:18;8.23;;;2.40;;
58272;SDS011;44075;42.436;18.514;2022-11-18T03:16:28;8.52;;;3.35;;
58272;SDS011;44075;42.436;18.514;2022-11-18T03:18:58;9.63;;;3.10;;
58272;SDS011;44075;42.436;18.514;2022-11-18T03:23:58;8.13;;;2.60;;
58272;SDS011;44075;42.436;18.514;2022-11-18T03:26:37;9.25;;;3.08;;
58272;SDS011;44075;42.436;18.514;2022-11-18T03:29:18;8.25;;;2.78;;
58272;SDS011;44075;42.436;18.514;2022-11-18T03:34:15;8.05;;;2.50;;
58272;SDS011;44075;42.436;18.514;2022-11-18T03:36:44;7.75;;;2.95;;
58272;SDS011;44075;42.436;18.514;2022-11-18T03:39:11;6.93;;;3.08;;
58272;SDS011;44075;42.436;18.514;2022-11-18T03:41:43;11.35;;;3.22;;
58272;SDS011;44075;42.436;18.514;2022-11-18T03:44:12;11.05;;;3.45;;
58272;SDS011;44075;42.436;18.514;2022-11-18T03:46:43;7.00;;;2.85;;
58272;SDS011;44075;42.436;18.514;2022-11-18T03:49:19;8.70;;;2.92;;
58272;SDS011;44075;42.436;18.514;2022-11-18T03:51:47;9.63;;;3.67;;
58272;SDS011;44075;42.436;18.514;2022-11-18T03:54:16;7.10;;;2.53;;
58272;SDS011;44075;42.436;18.514;2022-11-18T03:56:45;8.95;;;2.53;;
58272;SDS011;44075;42.436;18.514;2022-11-18T03:59:20;7.95;;;2.70;;
58272;SDS011;44075;42.436;18.514;2022-11-18T04:01:54;10.30;;;2.78;;
58272;SDS011;44075;42.436;18.514;2022-11-18T04:04:22;10.10;;;2.87;;
58272;SDS011;44075;42.436;18.514;2022-11-18T04:06:49;9.70;;;2.80;;
58272;SDS011;44075;42.436;18.514;2022-11-18T04:09:21;7.20;;;2.90;;
58272;SDS011;44075;42.436;18.514;2022-11-18T04:11:49;6.80;;;2.75;;
58272;SDS011;44075;42.436;18.514;2022-11-18T04:14:27;10.75;;;3.28;;
58272;SDS011;44075;42.436;18.514;2022-11-18T04:16:54;8.18;;;2.40;;
58272;SDS011;44075;42.436;18.514;2022-11-18T04:19:20;6.75;;;2.70;;
58272;SDS011;44075;42.436;18.514;2022-11-18T04:21:49;9.35;;;2.55;;
58272;SDS011;44075;42.436;18.514;2022-11-18T04:24:15;7.00;;;2.17;;
58272;SDS011;44075;42.436;18.514;2022-11-18T04:26:41;10.10;;;2.47;;
58272;SDS011;44075;42.436;18.514;2022-11-18T04:29:07;7.90;;;2.17;;
58272;SDS011;44075;42.436;18.514;2022-11-18T04:31:33;7.68;;;2.50;;
58272;SDS011;44075;42.436;18.514;2022-11-18T04:33:59;6.47;;;1.95;;
58272;SDS011;44075;42.436;18.514;2022-11-18T04:36:25;7.65;;;2.80;;
58272;SDS011;44075;42.436;18.514;2022-11-18T04:38:52;7.22;;;2.10;;
58272;SDS011;44075;42.436;18.514;2022-11-18T04:41:18;7.45;;;2.20;;
58272;SDS011;44075;42.436;18.514;2022-11-18T04:43:44;7.40;;;2.83;;
58272;SDS011;44075;42.436;18.514;2022-11-18T04:46:10;8.40;;;2.95;;
58272;SDS011;44075;42.436;18.514;2022-11-18T04:48:36;7.13;;;2.80;;
58272;SDS011;44075;42.436;18.514;2022-11-18T04:51:02;7.97;;;2.70;;
58272;SDS011;44075;42.436;18.514;2022-11-18T04:53:29;8.55;;;2.80;;
58272;SDS011;44075;42.436;18.514;2022-11-18T04:55:55;8.95;;;3.00;;
58272;SDS011;44075;42.436;18.514;2022-11-18T04:58:21;8.50;;;3.53;;
58272;SDS011;44075;42.436;18.514;2022-11-18T05:00:50;8.20;;;3.00;;
58272;SDS011;44075;42.436;18.514;2022-11-18T05:03:16;10.27;;;2.92;;
58272;SDS011;44075;42.436;18.514;2022-11-18T05:05:42;7.63;;;2.85;;
58272;SDS011;44075;42.436;18.514;2022-11-18T05:08:08;6.82;;;3.05;;
58272;SDS011;44075;42.436;18.514;2022-11-18T05:10:34;7.80;;;3.03;;
58272;SDS011;44075;42.436;18.514;2022-11-18T05:13:00;11.13;;;3.42;;
58272;SDS011;44075;42.436;18.514;2022-11-18T05:15:26;8.90;;;2.92;;
58272;SDS011;44075;42.436;18.514;2022-11-18T05:17:52;8.85;;;3.45;;
58272;SDS011;44075;42.436;18.514;2022-11-18T05:20:18;9.73;;;3.13;;
58272;SDS011;44075;42.436;18.514;2022-11-18T05:22:44;7.40;;;3.20;;
58272;SDS011;44075;42.436;18.514;2022-11-18T05:25:10;6.90;;;2.55;;
58272;SDS011;44075;42.436;18.514;2022-11-18T05:27:36;6.43;;;2.92;;
58272;SDS011;44075;42.436;18.514;2022-11-18T05:30:03;9.88;;;3.10;;
58272;SDS011;44075;42.436;18.514;2022-11-18T05:32:29;8.98;;;2.97;;
58272;SDS011;44075;42.436;18.514;2022-11-18T05:34:56;7.53;;;2.80;;
58272;SDS011;44075;42.436;18.514;2022-11-18T05:37:25;9.80;;;3.15;;
58272;SDS011;44075;42.436;18.514;2022-11-18T05:39:51;9.25;;;2.95;;
58272;SDS011;44075;42.436;18.514;2022-11-18T05:42:17;10.15;;;2.88;;
58272;SDS011;44075;42.436;18.514;2022-11-18T05:45:02;6.53;;;2.20;;
58272;SDS011;44075;42.436;18.514;2022-11-18T05:47:29;8.07;;;2.90;;
58272;SDS011;44075;42.436;18.514;2022-11-18T05:50:15;9.05;;;3.15;;
58272;SDS011;44075;42.436;18.514;2022-11-18T05:52:41;6.93;;;3.10;;
58272;SDS011;44075;42.436;18.514;2022-11-18T05:55:07;8.63;;;3.30;;
58272;SDS011;44075;42.436;18.514;2022-11-18T05:57:33;9.60;;;3.20;;
58272;SDS011;44075;42.436;18.514;2022-11-18T05:59:59;8.20;;;2.78;;
58272;SDS011;44075;42.436;18.514;2022-11-18T06:02:25;7.95;;;2.80;;
58272;SDS011;44075;42.436;18.514;2022-11-18T06:04:58;7.32;;;2.60;;
58272;SDS011;44075;42.436;18.514;2022-11-18T06:09:56;6.68;;;2.40;;
58272;SDS011;44075;42.436;18.514;2022-11-18T06:12:27;6.78;;;2.70;;
58272;SDS011;44075;42.436;18.514;2022-11-18T06:14:59;8.00;;;2.20;;
58272;SDS011;44075;42.436;18.514;2022-11-18T06:17:27;9.70;;;2.80;;
58272;SDS011;44075;42.436;18.514;2022-11-18T06:19:55;8.50;;;2.80;;
58272;SDS011;44075;42.436;18.514;2022-11-18T06:22:21;9.52;;;2.47;;
58272;SDS011;44075;42.436;18.514;2022-11-18T06:24:47;8.60;;;2.33;;
58272;SDS011;44075;42.436;18.514;2022-11-18T06:27:13;9.27;;;2.80;;
58272;SDS011;44075;42.436;18.514;2022-11-18T06:29:40;9.82;;;3.33;;
58272;SDS011;44075;42.436;18.514;2022-11-18T06:32:06;7.72;;;3.03;;
58272;SDS011;44075;42.436;18.514;2022-11-18T06:34:32;7.40;;;3.30;;
58272;SDS011;44075;42.436;18.514;2022-11-18T06:36:58;8.88;;;3.78;;
58272;SDS011;44075;42.436;18.514;2022-11-18T06:39:24;9.48;;;2.92;;
58272;SDS011;44075;42.436;18.514;2022-11-18T06:41:53;8.30;;;3.20;;
58272;SDS011;44075;42.436;18.514;2022-11-18T06:44:19;8.77;;;3.58;;
58272;SDS011;44075;42.436;18.514;2022-11-18T06:46:48;7.93;;;3.40;;
58272;SDS011;44075;42.436;18.514;2022-11-18T06:49:21;7.93;;;3.70;;
58272;SDS011;44075;42.436;18.514;2022-11-18T06:51:47;9.40;;;3.60;;
58272;SDS011;44075;42.436;18.514;2022-11-18T06:54:13;9.85;;;3.85;;
58272;SDS011;44075;42.436;18.514;2022-11-18T06:56:39;9.05;;;3.58;;
58272;SDS011;44075;42.436;18.514;2022-11-18T06:59:05;10.40;;;3.70;;
58272;SDS011;44075;42.436;18.514;2022-11-18T07:01:35;9.93;;;3.83;;
58272;SDS011;44075;42.436;18.514;2022-11-18T07:04:02;11.55;;;3.45;;
58272;SDS011;44075;42.436;18.514;2022-11-18T07:06:29;12.32;;;4.00;;
58272;SDS011;44075;42.436;18.514;2022-11-18T07:08:55;8.75;;;3.75;;
58272;SDS011;44075;42.436;18.514;2022-11-18T07:11:23;8.63;;;3.58;;
58272;SDS011;44075;42.436;18.514;2022-11-18T07:13:49;9.63;;;4.05;;
58272;SDS011;44075;42.436;18.514;2022-11-18T07:16:19;7.10;;;3.00;;
58272;SDS011;44075;42.436;18.514;2022-11-18T07:18:46;6.72;;;3.22;;
58272;SDS011;44075;42.436;18.514;2022-11-18T07:21:13;8.27;;;3.17;;
58272;SDS011;44075;42.436;18.514;2022-11-18T07:23:40;8.13;;;3.17;;
58272;SDS011;44075;42.436;18.514;2022-11-18T07:26:06;9.10;;;3.60;;
58272;SDS011;44075;42.436;18.514;2022-11-18T07:28:32;9.05;;;3.60;;
58272;SDS011;44075;42.436;18.514;2022-11-18T07:31:05;8.63;;;3.50;;
58272;SDS011;44075;42.436;18.514;2022-11-18T07:33:32;10.75;;;3.90;;
58272;SDS011;44075;42.436;18.514;2022-11-18T07:35:59;17.58;;;5.50;;
58272;SDS011;44075;42.436;18.514;2022-11-18T07:38:25;12.73;;;5.47;;
58272;SDS011;44075;42.436;18.514;2022-11-18T07:40:51;16.00;;;5.03;;
58272;SDS011;44075;42.436;18.514;2022-11-18T07:43:17;14.82;;;4.32;;
58272;SDS011;44075;42.436;18.514;2022-11-18T07:45:43;11.50;;;2.90;;
58272;SDS011;44075;42.436;18.514;2022-11-18T07:48:09;11.10;;;3.17;;
58272;SDS011;44075;42.436;18.514;2022-11-18T07:50:35;11.93;;;3.28;;
58272;SDS011;44075;42.436;18.514;2022-11-18T07:53:02;8.93;;;2.78;;
58272;SDS011;44075;42.436;18.514;2022-11-18T07:55:28;16.38;;;3.30;;
58272;SDS011;44075;42.436;18.514;2022-11-18T07:57:54;12.05;;;3.03;;
58272;SDS011;44075;42.436;18.514;2022-11-18T08:00:20;10.80;;;3.08;;
58272;SDS011;44075;42.436;18.514;2022-11-18T08:02:50;10.13;;;2.58;;
58272;SDS011;44075;42.436;18.514;2022-11-18T08:05:16;8.23;;;2.03;;
58272;SDS011;44075;42.436;18.514;2022-11-18T08:07:42;7.15;;;1.90;;
58272;SDS011;44075;42.436;18.514;2022-11-18T08:10:08;6.80;;;2.00;;
58272;SDS011;44075;42.436;18.514;2022-11-18T08:12:34;7.45;;;1.90;;
58272;SDS011;44075;42.436;18.514;2022-11-18T08:15:00;8.38;;;2.15;;
58272;SDS011;44075;42.436;18.514;2022-11-18T08:17:26;8.88;;;2.03;;
58272;SDS011;44075;42.436;18.514;2022-11-18T08:19:53;8.75;;;2.70;;
58272;SDS011;44075;42.436;18.514;2022-11-18T08:22:19;8.57;;;2.55;;
58272;SDS011;44075;42.436;18.514;2022-11-18T08:24:45;10.55;;;3.13;;
58272;SDS011;44075;42.436;18.514;2022-11-18T08:27:12;9.05;;;2.72;;
58272;SDS011;44075;42.436;18.514;2022-11-18T08:29:38;7.57;;;3.17;;
58272;SDS011;44075;42.436;18.514;2022-11-18T08:32:04;9.60;;;3.28;;
58272;SDS011;44075;42.436;18.514;2022-11-18T08:34:30;8.00;;;3.30;;
58272;SDS011;44075;42.436;18.514;2022-11-18T08:36:56;8.20;;;3.53;;
58272;SDS011;44075;42.436;18.514;2022-11-18T08:39:22;8.57;;;3.58;;
58272;SDS011;44075;42.436;18.514;2022-11-18T08:41:49;8.70;;;3.53;;
58272;SDS011;44075;42.436;18.514;2022-11-18T08:44:15;8.65;;;3.42;;
58272;SDS011;44075;42.436;18.514;2022-11-18T08:46:42;10.23;;;3.45;;
58272;SDS011;44075;42.436;18.514;2022-11-18T08:49:11;11.75;;;3.38;;
58272;SDS011;44075;42.436;18.514;2022-11-18T08:51:37;9.45;;;3.25;;
58272;SDS011;44075;42.436;18.514;2022-11-18T08:54:03;8.57;;;3.72;;
58272;SDS011;44075;42.436;18.514;2022-11-18T08:56:29;12.85;;;3.38;;
58272;SDS011;44075;42.436;18.514;2022-11-18T08:58:55;8.57;;;3.15;;
58272;SDS011;44075;42.436;18.514;2022-11-18T09:01:21;10.38;;;2.90;;
58272;SDS011;44075;42.436;18.514;2022-11-18T09:03:48;8.80;;;3.10;;
58272;SDS011;44075;42.436;18.514;2022-11-18T09:06:15;10.80;;;3.28;;
58272;SDS011;44075;42.436;18.514;2022-11-18T09:08:41;8.90;;;3.15;;
58272;SDS011;44075;42.436;18.514;2022-11-18T09:11:08;9.77;;;3.28;;
58272;SDS011;44075;42.436;18.514;2022-11-18T09:13:35;8.82;;;2.95;;
58272;SDS011;44075;42.436;18.514;2022-11-18T09:16:01;10.60;;;3.47;;
58272;SDS011;44075;42.436;18.514;2022-11-18T09:18:27;10.65;;;3.13;;
58272;SDS011;44075;42.436;18.514;2022-11-18T09:20:58;7.95;;;2.55;;
58272;SDS011;44075;42.436;18.514;2022-11-18T09:23:24;8.63;;;2.42;;
58272;SDS011;44075;42.436;18.514;2022-11-18T09:25:57;13.65;;;3.10;;
58272;SDS011;44075;42.436;18.514;2022-11-18T09:28:24;10.40;;;3.28;;
58272;SDS011;44075;42.436;18.514;2022-11-18T09:30:50;11.95;;;2.95;;
58272;SDS011;44075;42.436;18.514;2022-11-18T09:33:16;9.48;;;3.10;;
58272;SDS011;44075;42.436;18.514;2022-11-18T09:35:42;11.32;;;3.10;;
58272;SDS011;44075;42.436;18.514;2022-11-18T09:38:08;8.90;;;2.90;;
58272;SDS011;44075;42.436;18.514;2022-11-18T09:48:40;10.30;;;3.67;;
58272;SDS011;44075;42.436;18.514;2022-11-18T09:51:25;11.40;;;4.57;;
58272;SDS011;44075;42.436;18.514;2022-11-18T09:53:53;12.52;;;4.85;;
58272;SDS011;44075;42.436;18.514;2022-11-18T09:56:19;10.50;;;5.22;;
58272;SDS011;44075;42.436;18.514;2022-11-18T09:58:46;11.77;;;5.57;;
58272;SDS011;44075;42.436;18.514;2022-11-18T10:01:13;12.02;;;5.68;;
58272;SDS011;44075;42.436;18.514;2022-11-18T10:03:42;14.32;;;5.90;;
58272;SDS011;44075;42.436;18.514;2022-11-18T10:11:39;18.75;;;7.20;;
58272;SDS011;44075;42.436;18.514;2022-11-18T10:19:05;15.63;;;5.00;;
58272;SDS011;44075;42.436;18.514;2022-11-18T10:21:56;14.30;;;4.70;;
58272;SDS011;44075;42.436;18.514;2022-11-18T10:24:26;15.57;;;4.40;;
58272;SDS011;44075;42.436;18.514;2022-11-18T10:26:54;15.45;;;4.30;;
58272;SDS011;44075;42.436;18.514;2022-11-18T10:29:20;13.93;;;5.05;;
58272;SDS011;44075;42.436;18.514;2022-11-18T10:34:29;15.43;;;4.10;;
58272;SDS011;44075;42.436;18.514;2022-11-18T10:37:06;15.70;;;5.07;;
58272;SDS011;44075;42.436;18.514;2022-11-18T10:39:32;13.32;;;4.82;;
58272;SDS011;44075;42.436;18.514;2022-11-18T10:42:05;13.85;;;4.63;;
58272;SDS011;44075;42.436;18.514;2022-11-18T10:44:39;16.23;;;4.90;;
58272;SDS011;44075;42.436;18.514;2022-11-18T10:47:15;17.65;;;4.55;;
58272;SDS011;44075;42.436;18.514;2022-11-18T10:49:44;21.23;;;4.32;;
58272;SDS011;44075;42.436;18.514;2022-11-18T10:52:11;17.83;;;4.88;;
58272;SDS011;44075;42.436;18.514;2022-11-18T10:54:37;16.15;;;4.45;;
58272;SDS011;44075;42.436;18.514;2022-11-18T11:05:16;14.30;;;4.05;;
58272;SDS011;44075;42.436;18.514;2022-11-18T11:07:44;15.68;;;4.53;;
58272;SDS011;44075;42.436;18.514;2022-11-18T11:15:25;13.23;;;3.95;;
58272;SDS011;44075;42.436;18.514;2022-11-18T11:17:55;16.67;;;4.75;;
58272;SDS011;44075;42.436;18.514;2022-11-18T11:20:40;16.90;;;4.47;;
58272;SDS011;44075;42.436;18.514;2022-11-18T11:23:09;19.92;;;5.80;;
58272;SDS011;44075;42.436;18.514;2022-11-18T11:25:42;18.90;;;4.72;;
58272;SDS011;44075;42.436;18.514;2022-11-18T11:31:12;20.10;;;5.93;;
58272;SDS011;44075;42.436;18.514;2022-11-18T11:33:37;18.00;;;6.20;;
58272;SDS011;44075;42.436;18.514;2022-11-18T11:54:04;29.45;;;8.55;;
58272;SDS011;44075;42.436;18.514;2022-11-18T12:04:48;33.13;;;10.82;;
58272;SDS011;44075;42.436;18.514;2022-11-18T12:07:20;25.67;;;10.30;;
58272;SDS011;44075;42.436;18.514;2022-11-18T12:12:36;27.33;;;8.52;;
58272;SDS011;44075;42.436;18.514;2022-11-18T12:15:02;30.95;;;9.93;;
58272;SDS011;44075;42.436;18.514;2022-11-18T12:17:52;22.27;;;8.55;;
58272;SDS011;44075;42.436;18.514;2022-11-18T12:28:12;25.08;;;8.68;;
58272;SDS011;44075;42.436;18.514;2022-11-18T12:30:47;22.95;;;8.98;;
58272;SDS011;44075;42.436;18.514;2022-11-18T12:33:14;23.75;;;10.63;;
58272;SDS011;44075;42.436;18.514;2022-11-18T12:35:40;25.13;;;10.15;;
58272;SDS011;44075;42.436;18.514;2022-11-18T12:38:27;31.02;;;10.68;;
58272;SDS011;44075;42.436;18.514;2022-11-18T12:40:53;25.83;;;11.35;;
58272;SDS011;44075;42.436;18.514;2022-11-18T12:54:26;26.15;;;9.18;;
58272;SDS011;44075;42.436;18.514;2022-11-18T12:56:53;27.03;;;9.13;;
58272;SDS011;44075;42.436;18.514;2022-11-18T12:59:26;23.90;;;8.73;;
58272;SDS011;44075;42.436;18.514;2022-11-18T13:02:14;27.73;;;9.35;;
58272;SDS011;44075;42.436;18.514;2022-11-18T13:04:41;25.80;;;8.57;;
58272;SDS011;44075;42.436;18.514;2022-11-18T13:07:09;34.65;;;10.93;;
58272;SDS011;44075;42.436;18.514;2022-11-18T13:09:54;24.30;;;7.57;;
58272;SDS011;44075;42.436;18.514;2022-11-18T13:12:20;25.95;;;8.48;;
58272;SDS011;44075;42.436;18.514;2022-11-18T13:14:50;27.42;;;8.95;;
58272;SDS011;44075;42.436;18.514;2022-11-18T13:17:38;25.67;;;8.82;;
58272;SDS011;44075;42.436;18.514;2022-11-18T13:22:51;22.15;;;6.43;;
58272;SDS011;44075;42.436;18.514;2022-11-18T13:25:36;17.77;;;5.53;;
58272;SDS011;44075;42.436;18.514;2022-11-18T13:28:07;21.52;;;5.30;;
58272;SDS011;44075;42.436;18.514;2022-11-18T13:30:35;21.73;;;6.15;;
58272;SDS011;44075;42.436;18.514;2022-11-18T13:33:02;19.35;;;6.18;;
58272;SDS011;44075;42.436;18.514;2022-11-18T13:35:29;21.80;;;5.50;;
58272;SDS011;44075;42.436;18.514;2022-11-18T13:37:56;13.80;;;4.28;;
58272;SDS011;44075;42.436;18.514;2022-11-18T13:42:49;16.77;;;4.97;;
58272;SDS011;44075;42.436;18.514;2022-11-18T13:45:19;17.27;;;4.97;;
58272;SDS011;44075;42.436;18.514;2022-11-18T13:47:46;19.92;;;4.63;;
58272;SDS011;44075;42.436;18.514;2022-11-18T13:57:38;23.13;;;4.88;;
58272;SDS011;44075;42.436;18.514;2022-11-18T14:00:06;19.67;;;5.93;;
58272;SDS011;44075;42.436;18.514;2022-11-18T14:02:37;21.63;;;6.13;;
58272;SDS011;44075;42.436;18.514;2022-11-18T14:05:05;20.77;;;5.28;;
58272;SDS011;44075;42.436;18.514;2022-11-18T14:07:32;18.52;;;4.88;;
58272;SDS011;44075;42.436;18.514;2022-11-18T14:10:06;18.63;;;5.68;;
58272;SDS011;44075;42.436;18.514;2022-11-18T14:12:36;21.73;;;6.50;;
58272;SDS011;44075;42.436;18.514;2022-11-18T14:15:15;18.35;;;5.30;;
58272;SDS011;44075;42.436;18.514;2022-11-18T14:17:54;19.13;;;5.35;;
58272;SDS011;44075;42.436;18.514;2022-11-18T14:20:21;20.05;;;5.15;;
58272;SDS011;44075;42.436;18.514;2022-11-18T14:22:49;21.20;;;5.57;;
58272;SDS011;44075;42.436;18.514;2022-11-18T14:25:26;15.75;;;4.70;;
58272;SDS011;44075;42.436;18.514;2022-11-18T14:27:54;16.27;;;4.88;;
58272;SDS011;44075;42.436;18.514;2022-11-18T14:36:01;12.82;;;3.90;;
58272;SDS011;44075;42.436;18.514;2022-11-18T14:38:29;17.13;;;4.78;;
58272;SDS011;44075;42.436;18.514;2022-11-18T14:40:57;17.55;;;3.72;;
58272;SDS011;44075;42.436;18.514;2022-11-18T14:43:27;19.67;;;4.53;;
58272;SDS011;44075;42.436;18.514;2022-11-18T14:46:15;18.83;;;4.50;;
58272;SDS011;44075;42.436;18.514;2022-11-18T14:48:39;17.85;;;4.57;;
58272;SDS011;44075;42.436;18.514;2022-11-18T14:51:06;17.88;;;3.95;;
58272;SDS011;44075;42.436;18.514;2022-11-18T14:53:32;18.08;;;4.93;;
58272;SDS011;44075;42.436;18.514;2022-11-18T14:55:58;15.20;;;4.57;;
58272;SDS011;44075;42.436;18.514;2022-11-18T14:58:24;18.42;;;4.60;;
58272;SDS011;44075;42.436;18.514;2022-11-18T15:00:50;21.42;;;5.28;;
58272;SDS011;44075;42.436;18.514;2022-11-18T15:03:16;20.60;;;4.47;;
58272;SDS011;44075;42.436;18.514;2022-11-18T15:05:42;22.45;;;5.55;;
58272;SDS011;44075;42.436;18.514;2022-11-18T15:08:09;16.63;;;4.15;;
58272;SDS011;44075;42.436;18.514;2022-11-18T15:10:35;16.00;;;4.38;;
58272;SDS011;44075;42.436;18.514;2022-11-18T15:13:01;15.00;;;3.80;;
58272;SDS011;44075;42.436;18.514;2022-11-18T15:15:27;13.60;;;3.85;;
58272;SDS011;44075;42.436;18.514;2022-11-18T15:17:53;14.73;;;4.18;;
58272;SDS011;44075;42.436;18.514;2022-11-18T15:20:20;14.70;;;4.32;;
58272;SDS011;44075;42.436;18.514;2022-11-18T15:22:47;16.27;;;4.72;;
58272;SDS011;44075;42.436;18.514;2022-11-18T15:25:13;17.40;;;3.80;;
58272;SDS011;44075;42.436;18.514;2022-11-18T15:27:39;14.48;;;3.50;;
58272;SDS011;44075;42.436;18.514;2022-11-18T15:30:09;19.08;;;5.07;;
58272;SDS011;44075;42.436;18.514;2022-11-18T15:32:36;17.33;;;4.50;;
58272;SDS011;44075;42.436;18.514;2022-11-18T15:35:02;16.48;;;3.83;;
58272;SDS011;44075;42.436;18.514;2022-11-18T15:37:31;17.45;;;4.30;;
58272;SDS011;44075;42.436;18.514;2022-11-18T15:39:57;14.20;;;4.20;;
58272;SDS011;44075;42.436;18.514;2022-11-18T15:42:23;20.48;;;6.20;;
58272;SDS011;44075;42.436;18.514;2022-11-18T15:44:49;17.88;;;5.00;;
58272;SDS011;44075;42.436;18.514;2022-11-18T15:47:15;35.92;;;13.45;;
58272;SDS011;44075;42.436;18.514;2022-11-18T15:49:42;15.70;;;4.88;;
58272;SDS011;44075;42.436;18.514;2022-11-18T15:52:09;17.85;;;5.68;;
58272;SDS011;44075;42.436;18.514;2022-11-18T15:54:36;10.60;;;3.53;;
58272;SDS011;44075;42.436;18.514;2022-11-18T15:57:02;15.15;;;4.05;;
58272;SDS011;44075;42.436;18.514;2022-11-18T15:59:28;19.20;;;4.60;;
58272;SDS011;44075;42.436;18.514;2022-11-18T16:01:57;22.20;;;8.75;;
58272;SDS011;44075;42.436;18.514;2022-11-18T16:04:23;16.60;;;4.75;;
58272;SDS011;44075;42.436;18.514;2022-11-18T16:06:50;32.20;;;16.48;;
58272;SDS011;44075;42.436;18.514;2022-11-18T16:09:17;17.02;;;5.70;;
58272;SDS011;44075;42.436;18.514;2022-11-18T16:11:43;15.93;;;3.88;;
58272;SDS011;44075;42.436;18.514;2022-11-18T16:14:28;15.55;;;4.20;;
58272;SDS011;44075;42.436;18.514;2022-11-18T16:16:54;17.92;;;4.85;;
58272;SDS011;44075;42.436;18.514;2022-11-18T16:19:22;16.02;;;4.30;;
58272;SDS011;44075;42.436;18.514;2022-11-18T16:21:50;15.98;;;4.13;;
58272;SDS011;44075;42.436;18.514;2022-11-18T16:24:20;16.23;;;3.42;;
58272;SDS011;44075;42.436;18.514;2022-11-18T16:26:47;18.52;;;4.25;;
58272;SDS011;44075;42.436;18.514;2022-11-18T16:29:13;17.15;;;5.07;;
58272;SDS011;44075;42.436;18.514;2022-11-18T16:31:40;16.70;;;4.47;;
58272;SDS011;44075;42.436;18.514;2022-11-18T16:34:15;16.50;;;6.05;;
58272;SDS011;44075;42.436;18.514;2022-11-18T16:36:43;16.10;;;4.13;;
58272;SDS011;44075;42.436;18.514;2022-11-18T16:39:10;17.30;;;4.28;;
58272;SDS011;44075;42.436;18.514;2022-11-18T16:41:37;17.02;;;3.97;;
58272;SDS011;44075;42.436;18.514;2022-11-18T16:44:04;17.27;;;4.32;;
58272;SDS011;44075;42.436;18.514;2022-11-18T16:46:31;14.48;;;4.10;;
58272;SDS011;44075;42.436;18.514;2022-11-18T16:48:57;15.13;;;3.70;;
58272;SDS011;44075;42.436;18.514;2022-11-18T16:51:30;17.35;;;4.30;;